createdAt,value
2022-10-04T00:00:28.059Z,5.45
2022-10-04T00:03:07.075Z,5.48
2022-10-04T00:05:37.129Z,5.48
2022-10-04T00:08:28.170Z,5.36
2022-10-04T00:11:07.835Z,5.23
2022-10-04T00:13:40.065Z,5.19
2022-10-04T00:16:09.911Z,5.22
2022-10-04T00:18:46.176Z,5.08
2022-10-04T00:21:15.629Z,5.08
2022-10-04T00:23:49.128Z,5.00
2022-10-04T00:27:12.862Z,5.04
2022-10-04T00:29:44.028Z,5.03
2022-10-04T00:32:32.241Z,4.96
2022-10-04T00:35:03.170Z,4.90
2022-10-04T00:37:58.802Z,4.86
2022-10-04T00:40:31.585Z,4.81
2022-10-04T00:43:01.308Z,4.75
2022-10-04T00:45:42.208Z,4.68
2022-10-04T00:51:50.426Z,4.58
2022-10-04T00:54:24.675Z,4.54
2022-10-04T00:56:56.910Z,4.48
2022-10-04T00:59:36.730Z,4.44
2022-10-04T01:02:09.806Z,4.41
2022-10-04T01:04:48.024Z,4.34
2022-10-04T01:07:26.228Z,4.29
2022-10-04T01:09:59.044Z,4.32
2022-10-04T01:12:46.071Z,4.31
2022-10-04T01:15:24.488Z,4.27
2022-10-04T01:18:16.887Z,4.09
2022-10-04T01:20:56.454Z,4.06
2022-10-04T01:23:42.934Z,3.99
2022-10-04T01:26:42.242Z,4.03
2022-10-04T01:29:16.929Z,3.98
2022-10-04T01:31:49.460Z,4.01
2022-10-04T01:34:22.426Z,3.99
2022-10-04T01:36:55.525Z,3.89
2022-10-04T01:39:29.191Z,3.85
2022-10-04T01:42:06.495Z,3.83
2022-10-04T01:44:42.525Z,3.78
2022-10-04T01:47:16.460Z,3.77
2022-10-04T01:49:49.689Z,3.69
2022-10-04T01:52:23.811Z,3.70
2022-10-04T01:55:03.683Z,3.77
2022-10-04T01:57:39.118Z,3.71
2022-10-04T02:00:13.764Z,3.73
2022-10-04T02:02:47.082Z,3.73
2022-10-04T02:05:31.211Z,3.80
2022-10-04T02:08:07.067Z,3.85
2022-10-04T02:10:43.593Z,3.80
2022-10-04T02:13:18.791Z,3.78
2022-10-04T02:15:49.899Z,3.83
2022-10-04T02:18:23.042Z,3.85
2022-10-04T02:20:55.328Z,3.92
2022-10-04T02:23:26.760Z,3.90
2022-10-04T02:25:58.091Z,3.92
2022-10-04T02:28:27.755Z,3.94
2022-10-04T02:31:14.707Z,3.92
2022-10-04T02:33:50.059Z,4.01
2022-10-04T02:36:20.971Z,4.01
2022-10-04T02:39:00.573Z,4.03
2022-10-04T02:41:36.047Z,3.97
2022-10-04T02:44:13.460Z,3.97
2022-10-04T02:46:52.764Z,3.98
2022-10-04T02:49:32.266Z,3.98
2022-10-04T02:52:07.226Z,3.91
2022-10-04T02:54:46.488Z,3.90
2022-10-04T02:57:22.003Z,3.89
2022-10-04T02:59:52.023Z,3.86
2022-10-04T03:02:29.907Z,3.91
2022-10-04T03:05:07.607Z,3.90
2022-10-04T03:07:38.982Z,3.88
2022-10-04T03:10:12.629Z,3.83
2022-10-04T03:12:44.015Z,3.85
2022-10-04T03:15:15.109Z,3.85
2022-10-04T03:17:46.328Z,3.84
2022-10-04T03:20:21.420Z,3.71
2022-10-04T03:22:55.993Z,3.61
2022-10-04T03:25:29.906Z,3.61
2022-10-04T03:28:04.009Z,3.62
2022-10-04T03:30:33.885Z,3.62
2022-10-04T03:33:04.006Z,3.61
2022-10-04T03:35:38.194Z,3.58
2022-10-04T03:38:10.875Z,3.47
2022-10-04T03:40:45.486Z,3.51
2022-10-04T03:43:17.127Z,3.53
2022-10-04T03:45:46.624Z,3.50
2022-10-04T03:48:24.610Z,3.28
2022-10-04T03:52:54.189Z,3.18
2022-10-04T03:55:27.990Z,3.15
2022-10-04T03:57:58.128Z,3.17
2022-10-04T04:00:27.786Z,3.22
2022-10-04T04:03:02.042Z,3.28
2022-10-04T04:05:37.024Z,3.33
2022-10-04T04:08:15.593Z,3.44
2022-10-04T04:10:49.444Z,3.57
2022-10-04T04:13:27.106Z,3.64
2022-10-04T04:15:58.365Z,3.73
2022-10-04T04:18:33.667Z,3.82
2022-10-04T04:21:06.509Z,3.94
2022-10-04T04:23:39.134Z,3.87
2022-10-04T04:26:21.564Z,3.74
2022-10-04T04:28:54.550Z,3.75
2022-10-04T04:31:29.228Z,3.81
2022-10-04T04:34:02.066Z,3.82
2022-10-04T04:36:32.624Z,3.83
2022-10-04T04:39:37.276Z,3.87
2022-10-04T04:42:16.831Z,3.84
2022-10-04T04:44:51.920Z,3.82
2022-10-04T04:47:34.070Z,3.82
2022-10-04T04:50:09.795Z,3.82
2022-10-04T04:52:40.408Z,3.83
2022-10-04T04:55:20.987Z,3.88
2022-10-04T04:57:54.145Z,3.91
2022-10-04T05:00:31.649Z,3.90
2022-10-04T05:03:03.083Z,3.97
2022-10-04T05:05:35.307Z,3.96
2022-10-04T05:08:17.621Z,3.98
2022-10-04T05:10:55.674Z,4.06
2022-10-04T05:13:27.489Z,4.18
2022-10-04T05:16:00.945Z,4.28
2022-10-04T05:18:34.435Z,4.43
2022-10-04T05:21:10.470Z,4.55
2022-10-04T05:23:39.872Z,4.69
2022-10-04T05:26:15.291Z,4.84
2022-10-04T05:28:44.794Z,4.99
2022-10-04T05:31:46.017Z,5.19
2022-10-04T05:34:24.668Z,5.41
2022-10-04T05:37:22.737Z,5.65
2022-10-04T05:40:07.212Z,5.93
2022-10-04T05:42:45.673Z,6.16
2022-10-04T05:45:20.984Z,6.37
2022-10-04T05:47:53.858Z,6.59
2022-10-04T05:50:33.186Z,6.81
2022-10-04T05:53:24.587Z,6.99
2022-10-04T05:56:05.969Z,7.15
2022-10-04T05:59:02.310Z,7.42
2022-10-04T06:01:46.495Z,7.69
2022-10-04T06:04:39.987Z,7.94
2022-10-04T06:07:23.821Z,8.19
2022-10-04T06:10:20.813Z,8.40
2022-10-04T06:12:59.235Z,8.59
2022-10-04T06:15:55.466Z,8.75
2022-10-04T06:19:08.008Z,8.99
2022-10-04T06:21:48.489Z,9.20
2022-10-04T06:24:26.717Z,9.43
2022-10-04T06:27:04.208Z,9.58
2022-10-04T06:29:38.316Z,9.72
2022-10-04T06:32:30.970Z,9.94
2022-10-04T06:35:52.449Z,10.15
2022-10-04T06:39:21.283Z,10.34
2022-10-04T06:42:44.834Z,10.47
2022-10-04T06:45:32.623Z,10.61
2022-10-04T06:48:40.294Z,10.78
2022-10-04T06:53:16.857Z,11.00
2022-10-04T06:56:26.456Z,11.06
2022-10-04T06:59:28.172Z,11.15
2022-10-04T07:02:02.943Z,11.22
2022-10-04T07:05:06.328Z,11.31
2022-10-04T07:07:38.402Z,11.38
2022-10-04T07:10:35.313Z,11.54
2022-10-04T07:13:23.317Z,11.67
2022-10-04T07:16:00.859Z,11.69
2022-10-04T07:18:35.765Z,11.86
2022-10-04T07:21:11.911Z,12.04
2022-10-04T07:23:51.781Z,12.22
2022-10-04T07:26:30.527Z,12.37
2022-10-04T07:29:22.955Z,12.43
2022-10-04T07:32:06.932Z,12.65
2022-10-04T07:34:44.298Z,12.69
2022-10-04T07:37:16.132Z,12.40
2022-10-04T07:39:54.606Z,12.30
2022-10-04T07:42:32.793Z,12.60
2022-10-04T07:45:19.506Z,12.85
2022-10-04T07:47:49.286Z,12.74
2022-10-04T07:50:28.225Z,12.86
2022-10-04T07:53:07.130Z,12.93
2022-10-04T07:55:53.102Z,13.14
2022-10-04T07:58:46.377Z,13.04
2022-10-04T08:01:30.971Z,13.00
2022-10-04T08:04:21.010Z,13.13
2022-10-04T08:07:00.509Z,12.99
2022-10-04T08:10:00.820Z,13.43
2022-10-04T08:12:45.373Z,13.90
2022-10-04T08:15:37.858Z,14.42
2022-10-04T08:18:34.509Z,14.51
2022-10-04T08:21:08.965Z,14.12
2022-10-04T08:24:08.719Z,13.84
2022-10-04T08:26:56.323Z,13.98
2022-10-04T08:30:06.784Z,14.35
2022-10-04T08:32:54.994Z,14.49
2022-10-04T08:35:54.046Z,14.16
2022-10-04T08:38:50.668Z,13.64
2022-10-04T08:42:22.329Z,13.30
2022-10-04T08:45:25.666Z,12.58
2022-10-04T08:48:43.327Z,12.36
2022-10-04T08:52:06.883Z,12.37
2022-10-04T08:55:07.554Z,12.65
2022-10-04T08:58:17.166Z,13.25
2022-10-04T09:01:08.162Z,13.51
2022-10-04T09:04:47.904Z,14.08
2022-10-04T09:07:59.366Z,14.34
2022-10-04T09:10:44.734Z,14.09
2022-10-04T09:13:33.928Z,14.24
2022-10-04T09:16:17.989Z,14.48
2022-10-04T09:19:22.911Z,14.02
2022-10-04T09:22:24.387Z,14.12
2022-10-04T09:25:32.303Z,14.11
2022-10-04T09:29:04.767Z,14.00
2022-10-04T09:32:19.696Z,13.96
2022-10-04T09:35:32.329Z,13.87
2022-10-04T09:38:47.107Z,13.59
2022-10-04T09:41:41.866Z,13.51
2022-10-04T09:44:53.547Z,13.39
2022-10-04T09:47:37.997Z,13.29
2022-10-04T09:52:57.446Z,13.14
2022-10-04T09:56:00.287Z,13.05
2022-10-04T09:59:03.526Z,13.11
2022-10-04T10:01:42.014Z,13.25
2022-10-04T10:04:35.988Z,13.27
2022-10-04T10:07:31.268Z,13.18
2022-10-04T10:10:36.682Z,13.25
2022-10-04T10:13:43.497Z,13.27
2022-10-04T10:16:42.590Z,13.19
2022-10-04T10:20:05.516Z,13.21
2022-10-04T10:23:40.249Z,13.23
2022-10-04T10:26:47.135Z,13.12
2022-10-04T10:30:03.713Z,12.94
2022-10-04T10:33:20.681Z,12.97
2022-10-04T10:36:25.827Z,12.78
2022-10-04T10:39:45.475Z,12.83
2022-10-04T10:42:58.167Z,12.83
2022-10-04T10:45:56.646Z,13.02
2022-10-04T10:48:45.369Z,13.12
2022-10-04T10:51:23.425Z,13.27
2022-10-04T10:54:34.398Z,13.40
2022-10-04T10:57:19.556Z,13.58
2022-10-04T11:00:19.922Z,13.91
2022-10-04T11:03:55.154Z,14.43
2022-10-04T11:07:25.452Z,14.88
2022-10-04T11:10:44.012Z,14.64
2022-10-04T11:14:12.896Z,14.42
2022-10-04T11:17:12.964Z,14.70
2022-10-04T11:20:26.012Z,14.59
2022-10-04T11:23:53.652Z,14.55
2022-10-04T11:27:03.252Z,14.85
2022-10-04T11:30:25.292Z,15.31
2022-10-04T11:33:43.924Z,15.51
2022-10-04T11:36:45.589Z,15.55
2022-10-04T11:39:49.015Z,15.49
2022-10-04T11:42:37.914Z,15.53
2022-10-04T11:45:54.572Z,15.79
2022-10-04T11:48:42.073Z,16.29
2022-10-04T11:51:49.754Z,16.55
2022-10-04T11:54:56.094Z,16.52
2022-10-04T11:57:40.382Z,16.01
2022-10-04T12:00:17.100Z,16.07
2022-10-04T12:03:15.429Z,16.37
2022-10-04T12:06:18.835Z,16.23
2022-10-04T12:09:06.369Z,16.26
2022-10-04T12:12:41.272Z,16.36
2022-10-04T12:15:45.776Z,15.64
2022-10-04T12:18:52.676Z,15.34
2022-10-04T12:22:00.896Z,15.06
2022-10-04T12:25:28.539Z,15.00
2022-10-04T12:28:52.277Z,14.92
2022-10-04T12:31:32.611Z,14.60
2022-10-04T12:34:18.319Z,14.87
2022-10-04T12:37:19.070Z,15.01
2022-10-04T12:40:30.138Z,14.84
2022-10-04T12:43:35.175Z,14.68
2022-10-04T12:46:23.616Z,14.72
2022-10-04T12:52:59.153Z,15.17
2022-10-04T12:55:57.336Z,14.91
2022-10-04T12:58:35.675Z,15.04
2022-10-04T13:01:17.968Z,14.95
2022-10-04T13:04:23.334Z,14.58
2022-10-04T13:07:11.391Z,14.40
2022-10-04T13:10:22.659Z,14.51
2022-10-04T13:13:20.700Z,14.52
2022-10-04T13:19:00.352Z,14.42
2022-10-04T13:22:43.961Z,14.46
2022-10-04T13:25:42.369Z,14.31
2022-10-04T13:28:25.487Z,14.04
2022-10-04T13:31:05.846Z,13.98
2022-10-04T13:33:48.014Z,13.97
2022-10-04T13:36:25.770Z,14.04
2022-10-04T13:39:29.862Z,14.08
2022-10-04T13:42:33.687Z,14.08
2022-10-04T13:45:36.617Z,14.11
2022-10-04T13:48:27.230Z,14.06
2022-10-04T13:51:20.433Z,13.95
2022-10-04T13:54:19.414Z,13.88
2022-10-04T13:57:02.011Z,13.86
2022-10-04T13:59:46.434Z,13.83
2022-10-04T14:03:02.980Z,13.81
2022-10-04T14:06:32.603Z,13.83
2022-10-04T14:09:29.839Z,13.74
2022-10-04T14:12:31.173Z,13.72
2022-10-04T14:15:52.954Z,13.72
2022-10-04T14:19:07.335Z,13.64
2022-10-04T14:22:10.494Z,13.57
2022-10-04T14:25:06.991Z,13.54
2022-10-04T14:28:26.621Z,13.48
2022-10-04T14:31:21.552Z,13.48
2022-10-04T14:34:45.069Z,13.49
2022-10-04T14:37:40.191Z,13.40
2022-10-04T14:40:55.854Z,13.34
2022-10-04T14:44:28.546Z,13.34
2022-10-04T14:47:22.972Z,13.29
2022-10-04T14:50:23.416Z,13.13
2022-10-04T14:53:07.094Z,13.06
2022-10-04T14:56:27.495Z,13.00
2022-10-04T14:59:11.035Z,12.88
2022-10-04T15:01:47.329Z,12.73
2022-10-04T15:04:59.519Z,12.53
2022-10-04T15:07:37.820Z,12.38
2022-10-04T15:10:19.335Z,12.23
2022-10-04T15:13:10.963Z,12.00
2022-10-04T15:15:56.760Z,11.85
2022-10-04T15:18:48.413Z,11.71
2022-10-04T15:21:48.743Z,11.63
2022-10-04T15:24:30.110Z,11.61
2022-10-04T15:27:44.333Z,11.52
2022-10-04T15:30:25.751Z,11.35
2022-10-04T15:33:28.496Z,11.25
2022-10-04T15:36:41.908Z,11.10
2022-10-04T15:40:03.818Z,10.89
2022-10-04T15:42:37.532Z,10.74
2022-10-04T15:46:16.383Z,10.58
2022-10-04T15:53:42.757Z,10.35
2022-10-04T15:56:45.655Z,10.14
2022-10-04T15:59:33.894Z,9.97
2022-10-04T16:02:42.211Z,9.67
2022-10-04T16:05:29.378Z,9.46
2022-10-04T16:08:42.642Z,9.27
2022-10-04T16:11:40.373Z,9.13
2022-10-04T16:14:48.322Z,8.93
2022-10-04T16:17:49.515Z,8.74
2022-10-04T16:20:40.994Z,8.59
2022-10-04T16:23:32.150Z,8.61
2022-10-04T16:26:05.752Z,8.61
2022-10-04T16:29:13.313Z,8.36
2022-10-04T16:31:55.759Z,8.16
2022-10-04T16:34:52.076Z,7.96
2022-10-04T16:37:35.338Z,7.88
2022-10-04T16:40:26.579Z,7.87
2022-10-04T16:43:01.618Z,7.85
2022-10-04T16:45:44.874Z,7.77
2022-10-04T16:48:39.493Z,7.78
2022-10-04T16:51:48.470Z,7.70
2022-10-04T16:54:58.377Z,7.66
2022-10-04T16:57:29.084Z,7.68
2022-10-04T17:00:06.178Z,7.67
2022-10-04T17:03:19.019Z,7.53
2022-10-04T17:06:05.154Z,7.30
2022-10-04T17:09:13.074Z,7.34
2022-10-04T17:12:07.061Z,7.10
2022-10-04T17:15:25.054Z,6.82
2022-10-04T17:18:05.054Z,6.73
2022-10-04T17:20:57.054Z,6.90
2022-10-04T17:23:59.755Z,6.93
2022-10-04T17:26:48.760Z,6.80
2022-10-04T17:29:43.671Z,6.88
2022-10-04T17:32:26.151Z,6.90
2022-10-04T17:35:14.433Z,6.65
2022-10-04T17:37:56.263Z,6.50
2022-10-04T17:40:54.351Z,6.40
2022-10-04T17:43:35.475Z,6.33
2022-10-04T17:46:24.795Z,6.39
2022-10-04T17:49:19.274Z,6.40
2022-10-04T17:52:11.815Z,6.23
2022-10-04T17:55:06.294Z,6.19
2022-10-04T17:57:47.641Z,5.93
2022-10-04T18:00:20.036Z,5.82
2022-10-04T18:03:06.328Z,5.79
2022-10-04T18:05:51.027Z,5.83
2022-10-04T18:08:35.069Z,5.71
2022-10-04T18:11:16.119Z,5.83
2022-10-04T18:13:51.831Z,5.87
2022-10-04T18:16:30.835Z,5.93
2022-10-04T18:19:36.350Z,5.82
2022-10-04T18:22:16.095Z,5.83
2022-10-04T18:24:47.894Z,5.84
2022-10-04T18:27:23.014Z,5.82
2022-10-04T18:30:17.129Z,5.75
2022-10-04T18:32:49.790Z,5.84
2022-10-04T18:35:29.875Z,5.86
2022-10-04T18:38:21.249Z,5.89
2022-10-04T18:40:58.330Z,5.88
2022-10-04T18:43:32.771Z,5.85
2022-10-04T18:46:05.954Z,5.85
2022-10-04T18:48:53.414Z,5.86
2022-10-04T18:53:01.891Z,6.02
2022-10-04T18:55:43.055Z,6.10
2022-10-04T18:58:48.677Z,6.12
2022-10-04T19:01:56.329Z,6.10
2022-10-04T19:04:50.117Z,5.99
2022-10-04T19:07:25.673Z,6.01
2022-10-04T19:10:22.436Z,6.10
2022-10-04T19:13:05.488Z,6.21
2022-10-04T19:15:53.505Z,6.24
2022-10-04T19:18:43.693Z,6.25
2022-10-04T19:21:28.834Z,6.31
2022-10-04T19:24:37.518Z,6.38
2022-10-04T19:27:21.851Z,6.44
2022-10-04T19:30:07.754Z,6.40
2022-10-04T19:32:58.309Z,6.41
2022-10-04T19:35:51.793Z,6.33
2022-10-04T19:38:40.411Z,6.31
2022-10-04T19:41:24.153Z,6.23
2022-10-04T19:44:01.058Z,6.12
2022-10-04T19:46:42.057Z,6.09
2022-10-04T19:49:22.014Z,6.07
2022-10-04T19:51:56.072Z,5.97
2022-10-04T19:54:35.462Z,5.93
2022-10-04T19:57:10.632Z,5.90
2022-10-04T19:59:45.293Z,5.83
2022-10-04T20:02:16.399Z,5.84
2022-10-04T20:04:49.319Z,5.91
2022-10-04T20:07:25.831Z,5.99
2022-10-04T20:09:58.750Z,6.02
2022-10-04T20:12:36.463Z,6.06
2022-10-04T20:15:46.747Z,6.12
2022-10-04T20:19:01.109Z,6.15
2022-10-04T20:21:33.064Z,6.17
2022-10-04T20:24:03.091Z,6.27
2022-10-04T20:27:07.116Z,6.31
2022-10-04T20:30:15.155Z,6.39
2022-10-04T20:33:01.371Z,6.38
2022-10-04T20:36:10.559Z,6.41
2022-10-04T20:38:55.334Z,6.45
2022-10-04T20:42:27.334Z,6.51
2022-10-04T20:45:04.015Z,6.51
2022-10-04T20:47:44.632Z,6.45
2022-10-04T20:50:35.870Z,6.48
2022-10-04T20:53:15.551Z,6.41
2022-10-04T20:55:46.331Z,6.40
2022-10-04T20:58:33.161Z,6.51
2022-10-04T21:01:14.299Z,6.60
2022-10-04T21:03:44.254Z,6.57
2022-10-04T21:06:17.075Z,6.58
2022-10-04T21:08:46.453Z,6.64
2022-10-04T21:11:20.995Z,6.63
2022-10-04T21:13:57.993Z,6.56
2022-10-04T21:16:44.449Z,6.54
2022-10-04T21:19:51.091Z,6.52
2022-10-04T21:22:41.449Z,6.44
2022-10-04T21:25:34.993Z,6.23
2022-10-04T21:28:36.083Z,6.05
2022-10-04T21:31:06.834Z,6.07
2022-10-04T21:33:38.452Z,5.95
2022-10-04T21:36:09.569Z,5.81
2022-10-04T21:38:40.734Z,5.72
2022-10-04T21:41:10.892Z,5.73
2022-10-04T21:43:40.652Z,5.61
2022-10-04T21:46:10.419Z,5.53
2022-10-04T21:48:40.275Z,5.52
2022-10-04T21:52:45.509Z,5.54
2022-10-04T21:55:15.556Z,5.46
2022-10-04T21:57:45.322Z,5.27
2022-10-04T22:00:16.195Z,5.20
2022-10-04T22:02:46.084Z,5.18
2022-10-04T22:05:16.155Z,5.00
2022-10-04T22:07:47.554Z,4.95
2022-10-04T22:10:17.670Z,4.81
2022-10-04T22:12:47.462Z,4.72
2022-10-04T22:15:17.270Z,4.82
2022-10-04T22:17:46.991Z,4.73
2022-10-04T22:20:16.711Z,4.63
2022-10-04T22:22:48.051Z,4.71
2022-10-04T22:25:21.970Z,4.64
2022-10-04T22:27:52.181Z,4.59
2022-10-04T22:30:26.654Z,4.50
2022-10-04T22:32:58.574Z,4.47
2022-10-04T22:35:30.494Z,4.32
2022-10-04T22:38:02.652Z,4.24
2022-10-04T22:40:32.554Z,4.21
2022-10-04T22:43:04.573Z,4.31
2022-10-04T22:45:34.922Z,4.35
2022-10-04T22:48:12.332Z,4.28
2022-10-04T22:50:42.654Z,4.20
2022-10-04T22:53:19.334Z,4.11
2022-10-04T22:55:50.754Z,3.90
2022-10-04T22:58:21.895Z,3.83
2022-10-04T23:00:52.436Z,3.97
2022-10-04T23:03:33.001Z,3.77
2022-10-04T23:06:04.329Z,3.69
2022-10-04T23:08:35.641Z,3.66
2022-10-04T23:11:05.469Z,3.58
2022-10-04T23:13:35.335Z,3.55
2022-10-04T23:16:16.208Z,3.56
2022-10-04T23:18:45.954Z,3.50
2022-10-04T23:21:24.534Z,3.65
2022-10-04T23:23:56.330Z,3.64
2022-10-04T23:26:29.337Z,3.57
2022-10-04T23:28:59.132Z,3.64
2022-10-04T23:31:30.263Z,3.69
2022-10-04T23:34:00.098Z,3.49
2022-10-04T23:36:30.484Z,3.41
2022-10-04T23:39:04.352Z,3.50
2022-10-04T23:41:34.312Z,3.61
2022-10-04T23:44:04.112Z,3.43
2022-10-04T23:46:33.832Z,3.31
2022-10-04T23:49:03.716Z,3.23
2022-10-04T23:51:33.574Z,3.27
2022-10-04T23:54:04.910Z,3.35
2022-10-04T23:56:34.895Z,3.32
2022-10-04T23:59:05.254Z,3.24
